TimePST,TemperatureF,Dew PointF,Humidity,Sea Level PressureIn,VisibilityMPH,Wind Direction,Wind SpeedMPH,Gust SpeedMPH,PrecipitationIn,Events,Conditions,WindDirDegrees,DateUTC
12:53 AM,28.0,28.0,100,30.49,10.0,Calm,Calm,-,N/A,,Clear,0,2014-01-15 08:53:00
1:53 AM,30.9,30.0,96,30.49,10.0,Calm,Calm,-,N/A,,Clear,0,2014-01-15 09:53:00
2:53 AM,30.0,28.9,96,30.50,10.0,Calm,Calm,-,N/A,,Clear,0,2014-01-15 10:53:00
3:53 AM,30.0,28.9,96,30.50,10.0,NNW,5.8,-,N/A,,Clear,330,2014-01-15 11:53:00
4:53 AM,30.9,30.0,96,30.49,10.0,Calm,Calm,-,N/A,,Clear,0,2014-01-15 12:53:00
5:53 AM,30.9,28.9,92,30.50,10.0,NE,3.5,-,N/A,,Clear,50,2014-01-15 13:53:00
6:53 AM,32.0,30.0,92,30.48,10.0,Calm,Calm,-,N/A,,Clear,0,2014-01-15 14:53:00
7:53 AM,30.0,28.9,96,30.47,10.0,NNE,5.8,-,N/A,,Clear,20,2014-01-15 15:53:00
8:53 AM,33.1,32.0,96,30.45,10.0,ESE,4.6,-,N/A,,Clear,110,2014-01-15 16:53:00
9:53 AM,41.0,36.0,82,30.47,10.0,Variable,3.5,-,N/A,,Clear,0,2014-01-15 17:53:00
10:53 AM,46.9,36.0,66,30.49,10.0,East,5.8,-,N/A,,Clear,80,2014-01-15 18:53:00
11:53 AM,48.0,35.1,61,30.48,10.0,Calm,Calm,-,N/A,,Clear,0,2014-01-15 19:53:00
12:53 PM,53.1,35.1,50,30.47,10.0,Variable,4.6,-,N/A,,Clear,0,2014-01-15 20:53:00
1:53 PM,52.0,35.1,53,30.46,10.0,NW,4.6,-,N/A,,Clear,310,2014-01-15 21:53:00
2:53 PM,53.1,36.0,52,30.48,10.0,NW,4.6,-,N/A,,Clear,320,2014-01-15 22:53:00
3:53 PM,48.0,36.0,63,30.49,10.0,North,5.8,-,N/A,,Clear,360,2014-01-15 23:53:00
4:53 PM,39.0,34.0,82,30.50,10.0,NW,6.9,-,N/A,,Clear,320,2014-01-16 00:53:00
5:53 PM,36.0,32.0,86,30.51,10.0,NW,5.8,-,N/A,,Clear,320,2014-01-16 01:53:00
6:53 PM,37.0,33.1,86,30.52,10.0,NNW,3.5,-,N/A,,Clear,340,2014-01-16 02:53:00
7:53 PM,35.1,32.0,89,30.53,10.0,Calm,Calm,-,N/A,,Clear,0,2014-01-16 03:53:00
8:53 PM,33.1,30.9,92,30.54,10.0,NW,3.5,-,N/A,,Clear,310,2014-01-16 04:53:00
9:53 PM,30.9,30.0,96,30.56,10.0,North,4.6,-,N/A,,Clear,10,2014-01-16 05:53:00
10:53 PM,28.9,28.9,100,30.57,9.0,North,5.8,-,N/A,,Clear,10,2014-01-16 06:53:00
11:53 PM,30.0,30.0,100,30.58,9.0,NNW,4.6,-,N/A,,Clear,330,2014-01-16 07:53:00